Time;durP1;ratioP1;P1;durP2;ratioP2;P2;SDS_P1;SDS_P2;PMS_P1;PMS_P2;Temp;Humidity;BMP_temperature;BMP_pressure;BME280_temperature;BME280_humidity;BME280_pressure;Samples;Min_cycle;Max_cycle;Signal;HPM_P1;HPM_P2
2023/07/20 00:00:07;;;;;;;8.70;1.60;;;24.40;97.80;;;;;;4732454;30;20052;-88
2023/07/20 00:02:44;;;;;;;7.50;1.80;;;24.30;97.70;;;;;;4773968;29;20060;-87
2023/07/20 00:05:11;;;;;;;7.35;1.80;;;24.30;97.90;;;;;;4750669;30;20055;-87
2023/07/20 00:07:38;;;;;;;6.72;1.92;;;24.30;97.90;;;;;;4759057;30;20455;-87
2023/07/20 00:10:06;;;;;;;6.45;1.83;;;24.30;97.80;;;;;;4755334;29;20124;-88
2023/07/20 00:12:33;;;;;;;5.80;1.75;;;24.20;98.10;;;;;;4765835;29;20059;-89
2023/07/20 00:15:00;;;;;;;4.82;1.40;;;24.20;98.20;;;;;;4776301;29;20579;-90
2023/07/20 00:17:28;;;;;;;4.97;1.58;;;24.20;98.20;;;;;;4779869;29;20046;-88
2023/07/20 00:19:55;;;;;;;5.60;1.60;;;24.20;98.40;;;;;;4768531;29;20047;-88
2023/07/20 00:22:22;;;;;;;4.63;1.70;;;24.10;98.70;;;;;;4748102;30;20060;-88
2023/07/20 00:24:49;;;;;;;8.60;2.25;;;24.10;98.70;;;;;;4775156;29;20063;-89
2023/07/20 00:27:16;;;;;;;6.72;1.80;;;24.10;98.70;;;;;;4762131;30;20039;-89
2023/07/20 00:29:44;;;;;;;6.82;1.80;;;24.10;98.70;;;;;;4775444;29;20094;-89
2023/07/20 00:35:25;;;;;;;5.60;1.73;;;24.00;99.10;;;;;;4894535;24;20069;-89
2023/07/20 00:37:53;;;;;;;5.65;1.60;;;24.00;99.10;;;;;;4781827;29;20094;-89
2023/07/20 00:40:21;;;;;;;5.60;1.77;;;23.90;99.20;;;;;;4787959;29;20055;-89
2023/07/20 00:42:49;;;;;;;7.90;2.45;;;23.90;99.10;;;;;;4782965;29;20043;-87
2023/07/20 00:45:24;;;;;;;6.88;2.00;;;23.90;99.40;;;;;;4787819;29;20057;-88
2023/07/20 00:47:51;;;;;;;8.00;1.80;;;23.90;99.20;;;;;;4769236;29;20526;-88
2023/07/20 01:42:32;;;;;;;5.38;1.45;;;23.60;99.20;;;;;;4915468;24;22032;-89
2023/07/20 01:45:01;;;;;;;5.43;2.47;;;23.70;98.80;;;;;;4782119;29;20054;-89
2023/07/20 01:47:29;;;;;;;7.80;1.90;;;23.70;98.90;;;;;;4796616;29;20051;-89
2023/07/20 01:49:59;;;;;;;6.28;1.77;;;23.70;99.20;;;;;;4795383;29;20063;-89
2023/07/20 01:52:26;;;;;;;4.40;1.80;;;23.60;99.40;;;;;;4798133;29;20085;-90
2023/07/20 01:54:53;;;;;;;8.05;1.73;;;23.60;99.60;;;;;;4790301;29;20054;-89
2023/07/20 01:57:21;;;;;;;8.95;2.67;;;23.60;99.80;;;;;;4806034;29;20051;-89
2023/07/20 01:59:48;;;;;;;7.72;2.15;;;23.60;99.90;;;;;;4776775;29;20078;-89
2023/07/20 04:51:30;;;;;;;4.50;1.05;;;23.60;94.40;;;;;;4931950;24;20469;-89
2023/07/20 04:53:58;;;;;;;5.68;1.73;;;23.80;94.80;;;;;;4774480;29;20088;-88
2023/07/20 04:56:31;;;;;;;6.07;1.80;;;23.80;94.00;;;;;;4764317;30;20063;-88
2023/07/20 04:58:58;;;;;;;4.45;1.55;;;23.90;93.70;;;;;;4729157;30;20052;-88
2023/07/20 05:01:26;;;;;;;3.97;1.40;;;23.80;93.50;;;;;;4734644;30;20056;-88
2023/07/20 05:03:53;;;;;;;4.35;1.20;;;24.00;94.10;;;;;;4725806;30;20069;-88
2023/07/20 05:06:21;;;;;;;3.13;1.23;;;24.10;93.80;;;;;;4732829;30;20168;-85
2023/07/20 05:08:49;;;;;;;6.55;2.35;;;24.20;93.30;;;;;;4733509;30;20056;-86
2023/07/20 05:11:16;;;;;;;4.30;1.30;;;24.20;92.90;;;;;;4727634;30;20063;-85
2023/07/20 05:13:45;;;;;;;9.10;1.77;;;24.30;93.20;;;;;;4717208;30;20536;-85
2023/07/20 05:16:12;;;;;;;4.03;1.65;;;24.30;93.20;;;;;;4744112;30;20075;-84
2023/07/20 05:18:40;;;;;;;6.15;1.70;;;24.50;93.00;;;;;;4738983;30;20044;-85
2023/07/20 05:21:08;;;;;;;4.30;1.48;;;24.50;92.30;;;;;;4712690;30;20048;-85
2023/07/20 05:23:35;;;;;;;7.07;1.80;;;24.40;91.50;;;;;;4718563;30;20071;-85
2023/07/20 05:26:03;;;;;;;5.05;1.90;;;24.50;91.50;;;;;;4714448;30;20063;-85
2023/07/20 05:28:31;;;;;;;4.88;1.52;;;24.60;91.50;;;;;;4742332;29;20064;-84
2023/07/20 05:30:59;;;;;;;2.70;1.60;;;24.80;91.00;;;;;;4764706;29;20079;-85
2023/07/20 05:33:28;;;;;;;3.72;1.35;;;24.80;90.10;;;;;;4737229;29;20055;-86
2023/07/20 05:35:56;;;;;;;3.75;1.35;;;24.90;89.80;;;;;;4754172;29;20138;-85
2023/07/20 05:38:23;;;;;;;4.60;1.60;;;25.00;89.40;;;;;;4769249;29;20059;-86
2023/07/20 05:40:51;;;;;;;2.92;1.40;;;25.10;87.70;;;;;;4737734;29;20086;-85
2023/07/20 05:43:18;;;;;;;3.05;1.67;;;25.20;88.50;;;;;;4765205;29;20610;-86
2023/07/20 05:45:47;;;;;;;7.40;2.22;;;25.10;87.40;;;;;;4768957;29;20051;-84
2023/07/20 05:48:16;;;;;;;3.60;1.80;;;25.30;85.70;;;;;;4749975;29;20136;-85
2023/07/20 05:50:43;;;;;;;4.22;1.30;;;25.50;85.60;;;;;;4749576;30;20066;-85
2023/07/20 05:53:11;;;;;;;4.90;1.58;;;25.60;84.70;;;;;;4763105;30;20050;-84
2023/07/20 05:55:39;;;;;;;3.20;1.30;;;25.80;84.20;;;;;;4763970;30;20425;-85
2023/07/20 05:58:07;;;;;;;4.10;1.58;;;25.90;83.10;;;;;;4765564;30;20058;-85
2023/07/20 06:00:34;;;;;;;4.35;1.52;;;25.80;83.10;;;;;;4766246;30;20839;-85
2023/07/20 06:03:02;;;;;;;3.78;1.58;;;25.90;81.60;;;;;;4749790;30;20044;-88
2023/07/20 06:05:30;;;;;;;6.25;2.17;;;26.10;81.40;;;;;;4766061;30;20087;-84
2023/07/20 06:07:58;;;;;;;5.00;1.75;;;26.10;79.50;;;;;;4760165;30;20066;-83
2023/07/20 06:10:26;;;;;;;4.68;1.83;;;26.20;80.50;;;;;;4744397;30;20723;-84
2023/07/20 06:12:55;;;;;;;3.60;1.52;;;26.20;78.90;;;;;;4760041;30;20055;-85
2023/07/20 06:15:27;;;;;;;3.47;1.20;;;26.10;77.90;;;;;;4762958;30;20079;-84
2023/07/20 06:17:56;;;;;;;4.70;2.05;;;26.40;78.20;;;;;;4766186;30;20803;-84
2023/07/20 06:20:24;;;;;;;7.72;1.75;;;26.60;78.10;;;;;;4747284;30;21059;-84
2023/07/20 06:22:51;;;;;;;6.93;1.60;;;26.70;76.10;;;;;;4763236;30;20504;-85
2023/07/20 06:25:18;;;;;;;6.05;2.10;;;26.80;75.50;;;;;;4761633;30;20528;-85
2023/07/20 06:27:46;;;;;;;5.35;1.70;;;27.00;74.90;;;;;;4759313;30;20082;-84
2023/07/20 06:30:13;;;;;;;9.63;1.90;;;26.90;73.50;;;;;;4761042;30;20137;-84
2023/07/20 06:32:40;;;;;;;5.03;1.60;;;27.00;73.30;;;;;;4748684;30;20059;-83
2023/07/20 06:35:08;;;;;;;2.80;1.60;;;27.10;73.30;;;;;;4760907;30;20520;-84
2023/07/20 06:37:35;;;;;;;4.65;2.38;;;27.20;73.30;;;;;;4749125;30;20056;-84
2023/07/20 06:40:04;;;;;;;3.85;1.90;;;27.30;73.30;;;;;;4766216;30;20054;-84
2023/07/20 06:42:34;;;;;;;6.30;1.63;;;27.50;71.70;;;;;;4747829;30;20058;-85
2023/07/20 06:45:04;;;;;;;8.35;2.03;;;27.60;72.20;;;;;;4748756;30;20088;-84
2023/07/20 06:47:31;;;;;;;6.60;2.00;;;27.80;71.20;;;;;;4763122;30;20134;-84
2023/07/20 06:49:59;;;;;;;4.35;1.60;;;28.00;70.60;;;;;;4749698;29;20409;-82
2023/07/20 06:52:26;;;;;;;4.82;1.65;;;28.20;71.50;;;;;;4769308;29;20545;-83
2023/07/20 06:54:53;;;;;;;5.40;2.13;;;28.10;70.20;;;;;;4749955;29;20064;-84
2023/07/20 06:57:20;;;;;;;3.45;1.70;;;27.60;71.10;;;;;;4750719;29;20130;-85
2023/07/20 06:59:48;;;;;;;8.52;2.55;;;27.30;70.90;;;;;;4754977;29;20047;-86
2023/07/20 07:02:16;;;;;;;6.93;2.53;;;27.00;71.30;;;;;;4762006;29;20153;-83
2023/07/20 07:04:48;;;;;;;6.15;1.85;;;27.00;71.10;;;;;;4750200;29;20108;-84
2023/07/20 07:07:16;;;;;;;6.15;1.60;;;27.10;70.80;;;;;;4764762;29;20138;-85
2023/07/20 07:09:52;;;;;;;4.63;1.60;;;27.50;70.40;;;;;;4751361;29;20055;-83
2023/07/20 07:12:19;;;;;;;5.50;1.60;;;27.70;66.60;;;;;;4763225;29;20541;-81
2023/07/20 07:14:47;;;;;;;3.92;1.70;;;27.80;66.00;;;;;;4765328;29;20127;-83
2023/07/20 07:17:14;;;;;;;5.53;1.90;;;28.00;65.80;;;;;;4749050;29;20181;-80
2023/07/20 07:19:45;;;;;;;4.78;1.75;;;28.00;65.30;;;;;;4759616;30;20051;-82
2023/07/20 07:22:15;;;;;;;7.13;1.80;;;28.10;66.00;;;;;;4749699;29;20393;-86
2023/07/20 07:24:45;;;;;;;2.28;1.50;;;27.90;65.80;;;;;;4761588;29;20105;-84
2023/07/20 07:27:12;;;;;;;6.75;1.65;;;28.30;67.00;;;;;;4749229;29;20515;-79
2023/07/20 07:29:40;;;;;;;6.72;1.67;;;28.30;64.30;;;;;;4768805;29;20074;-82
2023/07/20 07:32:11;;;;;;;4.95;1.42;;;28.30;64.20;;;;;;4753800;29;20522;-81
2023/07/20 07:34:38;;;;;;;7.75;1.95;;;28.20;63.30;;;;;;4754432;29;20059;-83
2023/07/20 07:37:06;;;;;;;5.65;1.60;;;28.30;63.00;;;;;;4770801;29;20132;-80
2023/07/20 07:39:33;;;;;;;4.40;1.25;;;28.00;63.50;;;;;;4768834;29;20055;-84
2023/07/20 07:42:02;;;;;;;6.97;2.40;;;27.90;63.20;;;;;;4771207;29;20054;-81
2023/07/20 07:44:29;;;;;;;5.72;1.83;;;28.10;63.00;;;;;;4769520;29;20058;-82
2023/07/20 07:46:56;;;;;;;3.60;1.10;;;27.80;62.10;;;;;;4766798;29;20516;-82
2023/07/20 07:49:23;;;;;;;3.05;1.15;;;27.90;62.20;;;;;;4785402;29;20050;-83
2023/07/20 07:51:51;;;;;;;4.30;1.40;;;28.10;61.80;;;;;;4758830;30;20108;-82
2023/07/20 07:54:18;;;;;;;4.97;1.60;;;28.20;62.20;;;;;;4751879;30;20048;-80
2023/07/20 07:56:45;;;;;;;5.10;1.38;;;28.20;61.40;;;;;;4760139;29;20051;-82
2023/07/20 07:59:13;;;;;;;7.25;1.48;;;27.90;61.40;;;;;;4773189;29;20047;-79
2023/07/20 08:01:40;;;;;;;3.85;1.50;;;28.00;62.50;;;;;;4770657;30;20480;-81
2023/07/20 08:04:09;;;;;;;2.47;1.17;;;28.00;61.90;;;;;;4751235;29;20125;-84
2023/07/20 08:06:37;;;;;;;6.10;1.60;;;27.90;61.90;;;;;;4754629;29;20066;-80
2023/07/20 08:09:05;;;;;;;6.72;1.40;;;28.10;62.50;;;;;;4753441;29;20104;-80
2023/07/20 08:11:33;;;;;;;3.67;1.20;;;28.20;62.50;;;;;;4766441;29;20984;-85
2023/07/20 08:14:02;;;;;;;3.45;1.15;;;28.10;61.40;;;;;;4767827;29;20054;-82
2023/07/20 08:16:30;;;;;;;4.43;1.30;;;27.90;61.40;;;;;;4767968;29;20162;-80
2023/07/20 08:19:00;;;;;;;6.57;1.73;;;27.40;61.40;;;;;;4784153;29;22307;-80
2023/07/20 08:21:29;;;;;;;4.85;1.50;;;27.70;61.40;;;;;;4768373;29;20054;-81
2023/07/20 08:23:56;;;;;;;4.32;1.40;;;27.80;62.10;;;;;;4778724;29;20300;-80
2023/07/20 08:26:24;;;;;;;5.05;1.60;;;28.20;61.80;;;;;;4769290;29;20355;-83
2023/07/20 08:28:52;;;;;;;5.18;1.40;;;28.40;61.70;;;;;;4766209;29;20071;-84
2023/07/20 08:31:20;;;;;;;4.95;1.50;;;28.50;62.20;;;;;;4768100;29;20035;-82
2023/07/20 08:33:48;;;;;;;4.38;1.58;;;28.60;62.00;;;;;;4770648;29;20496;-83
2023/07/20 08:36:16;;;;;;;3.20;1.50;;;28.60;61.30;;;;;;4754351;29;20071;-83
2023/07/20 08:38:43;;;;;;;4.57;1.90;;;28.80;62.00;;;;;;4765997;29;20541;-80
2023/07/20 08:41:11;;;;;;;4.95;1.80;;;28.90;61.10;;;;;;4758021;29;20055;-82
2023/07/20 08:43:42;;;;;;;2.85;1.20;;;28.80;60.90;;;;;;4769911;29;20051;-84
2023/07/20 08:46:13;;;;;;;2.10;1.20;;;28.90;61.30;;;;;;4775495;29;20051;-82
2023/07/20 08:48:42;;;;;;;3.75;1.48;;;29.00;60.40;;;;;;4766136;29;20055;-82
2023/07/20 08:51:12;;;;;;;4.93;1.10;;;29.00;61.20;;;;;;4743506;30;20074;-83
2023/07/20 08:53:40;;;;;;;6.35;1.38;;;28.90;60.80;;;;;;4735177;30;20090;-82
2023/07/20 08:56:11;;;;;;;3.50;1.00;;;29.10;60.80;;;;;;4750879;30;20984;-84
2023/07/20 08:58:41;;;;;;;3.13;1.40;;;29.00;59.20;;;;;;4727158;30;20052;-82
2023/07/20 09:01:09;;;;;;;2.83;1.33;;;29.20;60.00;;;;;;4752411;30;20408;-82
2023/07/20 09:03:39;;;;;;;6.47;1.65;;;29.20;59.70;;;;;;4729995;30;20056;-82
2023/07/20 09:06:06;;;;;;;3.63;1.30;;;29.30;60.30;;;;;;4760421;30;20059;-82
2023/07/20 09:08:33;;;;;;;5.60;1.20;;;29.00;60.00;;;;;;4729741;30;20142;-82
2023/07/20 09:11:01;;;;;;;3.83;1.58;;;29.30;60.30;;;;;;4733531;30;23090;-80
2023/07/20 09:13:28;;;;;;;4.38;1.42;;;29.50;61.10;;;;;;4748555;30;20091;-82
2023/07/20 09:15:55;;;;;;;3.33;1.10;;;29.20;60.00;;;;;;4741767;30;20082;-82
2023/07/20 09:18:27;;;;;;;3.03;1.15;;;29.20;60.00;;;;;;4731037;30;20052;-83
2023/07/20 09:21:06;;;;;;;2.75;1.17;;;29.20;59.90;;;;;;4744430;30;20088;-81
2023/07/20 09:23:39;;;;;;;5.07;1.00;;;29.20;60.00;;;;;;4729876;30;20066;-84
2023/07/20 09:26:12;;;;;;;2.63;0.90;;;29.20;59.50;;;;;;4764431;30;20051;-81
2023/07/20 09:28:57;;;;;;;3.10;1.40;;;29.20;60.00;;;;;;4762050;30;20056;-85
2023/07/20 09:31:27;;;;;;;2.30;1.00;;;29.50;59.40;;;;;;4743117;30;20872;-80
2023/07/20 09:34:06;;;;;;;6.05;1.10;;;29.40;60.40;;;;;;4734598;30;20146;-83
2023/07/20 09:36:35;;;;;;;4.35;1.20;;;29.40;58.40;;;;;;4743226;30;20109;-82
2023/07/20 09:39:05;;;;;;;3.72;0.95;;;29.20;58.90;;;;;;4747965;30;20132;-83
2023/07/20 09:41:42;;;;;;;6.53;0.70;;;29.10;59.40;;;;;;4743788;30;20051;-82
2023/07/20 09:44:16;;;;;;;6.13;1.08;;;29.20;59.60;;;;;;4726973;30;20059;-83
2023/07/20 09:46:48;;;;;;;3.83;0.88;;;29.20;58.70;;;;;;4740711;30;20131;-83
2023/07/20 09:49:18;;;;;;;4.47;0.82;;;29.00;57.00;;;;;;4733203;30;20050;-84
2023/07/20 09:51:49;;;;;;;2.50;1.10;;;28.90;57.50;;;;;;4757764;30;20066;-80
2023/07/20 09:54:17;;;;;;;2.08;1.10;;;29.10;57.40;;;;;;4764872;30;20040;-83
2023/07/20 09:56:47;;;;;;;7.05;1.30;;;29.20;58.40;;;;;;4761950;30;20420;-81
2023/07/20 09:59:15;;;;;;;5.28;0.77;;;29.20;57.70;;;;;;4765348;30;20046;-81
2023/07/20 10:01:43;;;;;;;4.00;1.00;;;29.10;57.50;;;;;;4758728;30;20089;-82
2023/07/20 10:04:12;;;;;;;7.22;0.77;;;29.20;57.70;;;;;;4751691;30;20070;-79
2023/07/20 10:06:43;;;;;;;3.80;0.70;;;29.10;57.20;;;;;;4764487;30;20039;-81
2023/07/20 10:09:12;;;;;;;4.13;0.90;;;29.20;57.80;;;;;;4746780;30;20055;-80
2023/07/20 10:11:44;;;;;;;7.50;1.13;;;29.50;57.10;;;;;;4750117;30;20107;-81
2023/07/20 10:14:14;;;;;;;2.35;1.02;;;29.50;57.40;;;;;;4747364;29;20051;-82
2023/07/20 10:17:02;;;;;;;4.47;0.75;;;29.20;57.60;;;;;;4762028;30;20058;-82
2023/07/20 10:19:44;;;;;;;6.35;1.20;;;29.20;57.40;;;;;;4746358;30;20140;-80
2023/07/20 10:22:27;;;;;;;3.50;1.40;;;29.30;56.70;;;;;;4750534;30;20516;-79
2023/07/20 10:24:54;;;;;;;3.63;1.00;;;29.20;56.60;;;;;;4760694;30;20079;-83
2023/07/20 10:27:21;;;;;;;5.38;0.93;;;29.20;57.10;;;;;;4764191;30;20070;-82
2023/07/20 10:29:50;;;;;;;6.10;0.93;;;29.30;57.60;;;;;;4765438;30;20076;-80
2023/07/20 10:32:18;;;;;;;3.13;0.70;;;29.40;56.40;;;;;;4748743;30;20105;-79
2023/07/20 10:34:53;;;;;;;7.03;0.90;;;29.40;56.00;;;;;;4748992;30;20661;-80
2023/07/20 10:38:02;;;;;;;2.30;0.70;;;29.50;56.90;;;;;;4762710;30;20068;-83
2023/07/20 10:40:33;;;;;;;7.13;1.35;;;29.50;57.70;;;;;;4695229;30;20224;-83
2023/07/20 10:43:03;;;;;;;2.88;0.70;;;29.50;58.70;;;;;;4710423;30;20078;-80
2023/07/20 10:45:48;;;;;;;5.82;0.68;;;29.30;56.90;;;;;;4746375;29;22841;-82
2023/07/20 10:48:22;;;;;;;4.78;0.80;;;29.20;58.00;;;;;;4748454;30;20142;-82
2023/07/20 10:51:08;;;;;;;5.18;0.90;;;29.50;57.90;;;;;;4762560;30;20848;-83
2023/07/20 10:53:36;;;;;;;4.80;0.82;;;29.50;57.10;;;;;;4745235;30;20071;-83
2023/07/20 10:56:13;;;;;;;3.38;0.93;;;29.00;57.50;;;;;;4746386;30;20043;-82
2023/07/20 10:58:41;;;;;;;3.22;1.08;;;28.80;58.00;;;;;;4760698;30;20523;-83
2023/07/20 11:01:15;;;;;;;6.60;1.00;;;28.70;58.80;;;;;;4743263;30;20052;-84
2023/07/20 11:03:50;;;;;;;4.00;0.98;;;29.20;59.10;;;;;;4764715;30;20054;-82
2023/07/20 11:06:25;;;;;;;2.50;1.17;;;28.80;58.50;;;;;;4768841;30;20509;-85
2023/07/20 11:09:14;;;;;;;2.67;0.80;;;28.60;58.90;;;;;;4767633;30;20509;-81
2023/07/20 11:11:43;;;;;;;5.38;1.35;;;28.60;59.20;;;;;;4764159;30;22945;-79
2023/07/20 11:14:21;;;;;;;4.45;0.93;;;28.80;59.40;;;;;;4779393;29;20134;-83
2023/07/20 11:16:50;;;;;;;4.82;1.00;;;28.60;60.70;;;;;;4757284;30;20071;-83
2023/07/20 11:19:20;;;;;;;5.40;1.02;;;28.40;60.10;;;;;;4761007;30;20051;-83
2023/07/20 11:21:52;;;;;;;4.90;1.08;;;28.30;60.70;;;;;;4753077;30;20044;-84
2023/07/20 11:24:29;;;;;;;5.78;1.23;;;28.30;61.00;;;;;;4752867;30;20064;-82
2023/07/20 11:26:57;;;;;;;1.75;0.68;;;28.60;61.40;;;;;;4762361;30;20051;-78
2023/07/20 11:29:25;;;;;;;1.90;0.70;;;28.80;60.80;;;;;;4765661;30;20046;-82
2023/07/20 11:31:57;;;;;;;2.25;0.93;;;28.80;60.30;;;;;;4763301;30;20052;-83
2023/07/20 11:34:24;;;;;;;3.75;0.65;;;28.70;60.40;;;;;;4758445;30;20458;-83
2023/07/20 11:36:52;;;;;;;3.88;1.13;;;29.00;61.40;;;;;;4746396;30;20047;-81
2023/07/20 11:39:25;;;;;;;4.07;1.00;;;28.90;60.20;;;;;;4758679;30;20058;-80
2023/07/20 11:41:57;;;;;;;3.25;0.90;;;29.10;59.10;;;;;;4744558;30;20058;-84
2023/07/20 11:44:26;;;;;;;;;;;28.90;57.50;;;;;;4761370;30;20075;-82
2023/07/20 11:47:11;;;;;;;3.58;0.70;;;29.00;58.40;;;;;;4766718;30;19933;-83
2023/07/20 11:49:40;;;;;;;2.72;0.70;;;29.20;58.70;;;;;;4747985;30;20067;-82
2023/07/20 11:52:15;;;;;;;4.10;0.85;;;29.30;59.10;;;;;;4759270;30;20147;-84
2023/07/20 11:54:43;;;;;;;7.40;1.20;;;29.20;57.00;;;;;;4762174;30;20058;-82
2023/07/20 11:57:18;;;;;;;5.65;0.85;;;29.20;58.50;;;;;;4763916;30;20412;-83
2023/07/20 11:59:57;;;;;;;3.53;0.63;;;29.20;58.40;;;;;;4747637;30;20084;-83
2023/07/20 12:02:27;;;;;;;3.25;0.63;;;29.20;57.00;;;;;;4765625;30;20047;-82
2023/07/20 12:04:54;;;;;;;6.03;1.08;;;29.20;56.40;;;;;;4748811;30;20051;-80
2023/07/20 12:07:22;;;;;;;8.43;1.65;;;29.10;56.70;;;;;;4761789;30;20477;-83
2023/07/20 12:10:09;;;;;;;7.35;0.70;;;29.10;56.60;;;;;;4749706;30;20124;-82
2023/07/20 12:12:42;;;;;;;1.35;0.60;;;29.20;57.90;;;;;;4760562;30;22901;-83
2023/07/20 12:15:17;;;;;;;1.02;0.50;;;29.30;56.70;;;;;;4765181;30;20056;-83
2023/07/20 12:17:45;;;;;;;1.10;0.60;;;29.30;57.00;;;;;;4764312;30;20558;-83
2023/07/20 12:20:13;;;;;;;2.13;0.70;;;29.30;56.80;;;;;;4753143;30;20043;-82
2023/07/20 12:22:43;;;;;;;2.42;1.13;;;29.30;57.30;;;;;;4762590;30;20048;-83
2023/07/20 12:25:10;;;;;;;2.55;0.85;;;29.40;56.90;;;;;;4764935;30;20059;-83
2023/07/20 12:27:37;;;;;;;2.75;0.57;;;29.60;57.00;;;;;;4764764;29;20132;-82
2023/07/20 12:30:06;;;;;;;2.55;0.77;;;29.50;56.30;;;;;;4757486;30;20070;-85
2023/07/20 12:32:34;;;;;;;4.03;0.73;;;29.40;56.10;;;;;;4747579;30;20055;-83
2023/07/20 12:35:01;;;;;;;2.40;0.65;;;29.40;56.20;;;;;;4748035;30;20119;-82
2023/07/20 12:37:28;;;;;;;3.13;0.70;;;29.50;57.00;;;;;;4759571;30;20051;-82
2023/07/20 12:39:55;;;;;;;3.58;0.60;;;29.60;55.80;;;;;;4743843;30;20052;-84
2023/07/20 12:42:23;;;;;;;5.38;0.73;;;29.50;55.20;;;;;;4774270;29;20138;-83
2023/07/20 12:44:51;;;;;;;2.85;0.80;;;29.40;56.60;;;;;;4764591;30;20043;-84
2023/07/20 12:47:19;;;;;;;6.47;1.27;;;29.40;55.90;;;;;;4754547;30;20409;-83
2023/07/20 12:49:46;;;;;;;4.18;0.70;;;29.30;54.00;;;;;;4755992;30;20048;-82
2023/07/20 12:52:13;;;;;;;3.90;0.50;;;29.50;54.50;;;;;;4751467;30;20467;-82
2023/07/20 12:54:41;;;;;;;1.60;0.40;;;29.20;54.10;;;;;;4760051;30;21613;-83
2023/07/20 12:57:08;;;;;;;3.50;0.73;;;29.00;53.70;;;;;;4762415;30;20146;-83
2023/07/20 12:59:39;;;;;;;3.42;0.80;;;29.10;53.90;;;;;;4777728;29;20152;-85
2023/07/20 13:02:06;;;;;;;2.92;0.52;;;29.00;55.20;;;;;;4762521;30;20131;-83
2023/07/20 13:04:33;;;;;;;4.95;0.57;;;29.00;56.30;;;;;;4762863;30;20064;-82
2023/07/20 13:07:02;;;;;;;2.28;0.65;;;29.00;55.40;;;;;;4762562;30;20080;-81
2023/07/20 13:09:49;;;;;;;8.95;1.00;;;28.90;55.00;;;;;;4744674;30;20058;-80
2023/07/20 13:12:17;;;;;;;3.35;0.70;;;28.90;54.40;;;;;;4739127;30;20062;-82
2023/07/20 13:14:44;;;;;;;3.00;0.95;;;29.20;54.40;;;;;;4748916;30;20059;-83
2023/07/20 13:17:11;;;;;;;2.55;0.75;;;29.20;54.80;;;;;;4765667;30;20070;-83
2023/07/20 13:19:38;;;;;;;2.75;0.70;;;29.30;55.00;;;;;;4760464;30;20066;-85
2023/07/20 13:22:05;;;;;;;3.20;0.70;;;29.20;53.90;;;;;;4760723;30;20131;-83
2023/07/20 13:24:32;;;;;;;2.88;0.55;;;29.40;54.30;;;;;;4762474;30;20054;-82
2023/07/20 13:26:59;;;;;;;1.40;0.50;;;29.50;53.70;;;;;;4766781;30;20128;-79
2023/07/20 13:29:26;;;;;;;2.80;0.93;;;29.50;54.10;;;;;;4762935;30;20048;-81
2023/07/20 13:31:53;;;;;;;2.45;0.60;;;29.40;54.00;;;;;;4757785;30;20703;-82
2023/07/20 13:34:21;;;;;;;2.85;0.73;;;29.40;53.00;;;;;;4745313;30;20059;-81
2023/07/20 13:36:48;;;;;;;2.70;1.02;;;29.40;53.20;;;;;;4747227;30;20040;-82
2023/07/20 13:39:16;;;;;;;1.30;0.60;;;29.50;53.10;;;;;;4747516;30;20060;-82
2023/07/20 13:41:45;;;;;;;3.13;0.60;;;29.50;52.30;;;;;;4759659;30;20066;-85
2023/07/20 13:44:14;;;;;;;1.58;0.68;;;29.60;53.50;;;;;;4761793;30;20717;-82
2023/07/20 13:46:43;;;;;;;2.05;0.77;;;29.60;53.20;;;;;;4776421;29;20067;-83
2023/07/20 13:49:10;;;;;;;2.28;0.50;;;29.50;52.60;;;;;;4764521;29;20059;-85
2023/07/20 13:51:48;;;;;;;2.95;0.45;;;29.30;53.10;;;;;;4777098;29;20060;-84
2023/07/20 13:54:35;;;;;;;1.00;0.55;;;29.30;53.00;;;;;;4762125;29;20048;-82
2023/07/20 13:57:03;;;;;;;2.67;0.55;;;29.40;53.20;;;;;;4759091;30;20071;-83
2023/07/20 13:59:31;;;;;;;1.30;0.40;;;29.40;52.90;;;;;;4774510;29;20052;-83
2023/07/20 14:01:58;;;;;;;2.15;0.52;;;29.50;53.40;;;;;;4758725;30;20117;-82
2023/07/20 14:04:28;;;;;;;3.50;0.50;;;29.60;53.30;;;;;;4764412;30;23118;-81
2023/07/20 14:06:56;;;;;;;3.72;0.52;;;29.60;52.80;;;;;;4746857;30;22898;-82
2023/07/20 14:09:24;;;;;;;1.90;0.77;;;29.60;53.40;;;;;;4772542;29;20040;-84
2023/07/20 14:11:51;;;;;;;2.67;0.50;;;29.80;53.80;;;;;;4744002;30;20059;-82
2023/07/20 14:14:21;;;;;;;1.40;0.60;;;29.70;53.30;;;;;;4746394;30;20055;-84
2023/07/20 14:16:48;;;;;;;1.73;0.50;;;29.60;52.80;;;;;;4759001;30;20060;-83
2023/07/20 14:19:15;;;;;;;2.53;0.47;;;29.60;53.30;;;;;;4760384;30;20657;-81
2023/07/20 14:21:42;;;;;;;1.85;0.60;;;29.60;53.00;;;;;;4771978;29;20074;-82
2023/07/20 14:24:09;;;;;;;1.92;0.70;;;29.50;52.30;;;;;;4746945;30;20067;-83
2023/07/20 14:26:36;;;;;;;2.97;0.40;;;29.60;52.70;;;;;;4746853;30;20070;-80
2023/07/20 14:29:04;;;;;;;2.70;0.50;;;29.60;52.50;;;;;;4763333;30;20067;-81
2023/07/20 14:31:32;;;;;;;5.35;0.70;;;29.40;52.50;;;;;;4760737;30;20054;-83
2023/07/20 14:33:59;;;;;;;1.63;0.77;;;29.30;52.40;;;;;;4760513;30;22852;-82
2023/07/20 14:36:26;;;;;;;3.83;0.40;;;29.30;52.80;;;;;;4775556;29;20516;-82
2023/07/20 14:38:54;;;;;;;4.60;0.77;;;29.30;52.10;;;;;;4763635;29;20132;-82
2023/07/20 14:41:21;;;;;;;3.25;0.70;;;29.30;52.10;;;;;;4747103;30;20048;-82
2023/07/20 14:43:48;;;;;;;1.23;0.52;;;29.30;53.10;;;;;;4763053;30;20520;-83
2023/07/20 14:46:15;;;;;;;2.08;0.50;;;29.20;52.90;;;;;;4766176;30;20074;-82
2023/07/20 14:48:47;;;;;;;1.48;0.50;;;29.20;53.00;;;;;;4750436;30;20535;-82
2023/07/20 14:51:14;;;;;;;2.30;0.60;;;29.20;53.00;;;;;;4777373;29;20072;-82
2023/07/20 14:53:41;;;;;;;1.77;0.60;;;29.30;53.20;;;;;;4764759;30;20056;-81
2023/07/20 14:56:10;;;;;;;1.23;0.57;;;29.10;52.90;;;;;;4765734;30;20128;-82
2023/07/20 14:58:38;;;;;;;2.80;0.50;;;29.20;53.50;;;;;;4767855;30;20139;-82
2023/07/20 15:01:05;;;;;;;2.60;0.63;;;29.20;53.10;;;;;;4763119;30;20115;-82
2023/07/20 15:03:32;;;;;;;1.77;0.73;;;29.20;54.00;;;;;;4768057;30;20051;-82
2023/07/20 15:05:59;;;;;;;2.90;1.17;;;29.20;53.70;;;;;;4766381;30;20058;-81
2023/07/20 15:08:26;;;;;;;3.50;0.70;;;29.30;53.70;;;;;;4751158;30;20623;-82
2023/07/20 15:10:55;;;;;;;2.00;0.50;;;29.10;53.30;;;;;;4763928;30;20056;-81
2023/07/20 15:13:22;;;;;;;2.72;0.60;;;29.10;53.20;;;;;;4747665;30;20051;-84
2023/07/20 15:15:49;;;;;;;1.85;0.50;;;29.20;53.70;;;;;;4764875;30;20075;-82
2023/07/20 15:18:16;;;;;;;1.80;0.50;;;29.10;53.10;;;;;;4760507;30;20044;-83
2023/07/20 15:20:43;;;;;;;1.30;0.40;;;29.10;53.20;;;;;;4751478;30;20515;-82
2023/07/20 15:23:11;;;;;;;1.40;0.38;;;29.00;53.40;;;;;;4779937;29;20170;-81
2023/07/20 15:25:38;;;;;;;3.42;0.80;;;29.00;53.40;;;;;;4781481;29;20051;-81
2023/07/20 15:28:05;;;;;;;2.33;0.50;;;29.00;53.20;;;;;;4763482;30;20051;-82
2023/07/20 15:30:32;;;;;;;1.73;0.50;;;29.00;53.30;;;;;;4779211;29;20053;-82
2023/07/20 15:33:02;;;;;;;3.80;0.60;;;29.00;53.90;;;;;;4747202;30;21629;-81
2023/07/20 15:35:32;;;;;;;1.98;0.70;;;29.00;53.80;;;;;;4777847;29;20058;-83
2023/07/20 15:38:00;;;;;;;2.20;0.57;;;28.90;53.00;;;;;;4764587;30;20105;-80
2023/07/20 15:40:27;;;;;;;2.25;0.40;;;28.90;52.60;;;;;;4767059;30;20082;-82
2023/07/20 15:42:54;;;;;;;3.20;0.50;;;28.90;53.10;;;;;;4764370;30;20125;-82
2023/07/20 15:45:22;;;;;;;1.83;0.50;;;28.80;52.80;;;;;;4762961;30;20847;-81
2023/07/20 15:47:49;;;;;;;3.78;0.60;;;28.90;53.50;;;;;;4763652;29;20559;-81
2023/07/20 15:50:16;;;;;;;2.83;0.50;;;28.90;53.20;;;;;;4747454;30;20130;-81
2023/07/20 15:52:48;;;;;;;2.33;0.60;;;28.80;52.80;;;;;;4753872;30;20055;-82
2023/07/20 15:55:17;;;;;;;2.60;0.57;;;28.70;53.00;;;;;;4748758;30;20070;-83
2023/07/20 15:57:44;;;;;;;0.90;0.30;;;28.70;53.40;;;;;;4766844;30;20589;-82
2023/07/20 16:00:11;;;;;;;2.42;0.60;;;28.70;53.60;;;;;;4754628;30;20055;-83
2023/07/20 16:02:39;;;;;;;1.40;0.60;;;28.70;53.60;;;;;;4761510;30;20096;-83
2023/07/20 16:05:07;;;;;;;1.27;0.63;;;28.70;54.30;;;;;;4747048;30;20070;-81
2023/07/20 16:07:37;;;;;;;1.48;0.60;;;28.60;53.20;;;;;;4750164;30;20063;-83
2023/07/20 16:10:09;;;;;;;2.78;0.50;;;28.60;53.60;;;;;;4753128;30;20078;-83
2023/07/20 16:12:37;;;;;;;1.08;0.45;;;28.60;53.10;;;;;;4747330;30;20095;-83
2023/07/20 16:15:04;;;;;;;1.50;0.60;;;28.50;53.40;;;;;;4752290;30;20489;-82
2023/07/20 16:17:33;;;;;;;1.98;0.77;;;28.50;54.60;;;;;;4761964;30;20075;-83
2023/07/20 16:20:00;;;;;;;1.80;0.50;;;28.50;54.10;;;;;;4763157;30;20063;-81
2023/07/20 16:22:27;;;;;;;1.42;0.73;;;28.50;53.50;;;;;;4747150;30;20108;-84
2023/07/20 16:24:55;;;;;;;5.55;0.70;;;28.50;53.40;;;;;;4750533;30;20143;-82
2023/07/20 16:27:22;;;;;;;1.92;0.50;;;28.50;53.10;;;;;;4752357;30;20055;-82
2023/07/20 16:29:49;;;;;;;3.50;0.75;;;28.40;52.50;;;;;;4737332;30;20531;-81
2023/07/20 16:32:16;;;;;;;1.63;0.50;;;28.40;52.50;;;;;;4750840;30;20622;-82
2023/07/20 16:34:44;;;;;;;1.10;0.50;;;28.30;52.90;;;;;;4734999;30;23092;-83
2023/07/20 16:37:14;;;;;;;2.53;1.02;;;28.30;53.30;;;;;;4758709;30;20059;-80
2023/07/20 16:39:44;;;;;;;0.90;0.38;;;28.30;52.80;;;;;;4751631;30;20138;-84
2023/07/20 16:42:13;;;;;;;2.35;0.43;;;28.30;52.90;;;;;;4746915;30;20055;-82